Terminal Aerodrome Forecast
Issued by NWS

Home | Current Version | Previous Version | Text Only | Print | Product List | Glossary On
Versions: 1 2 3 4 5 6 7 8 9 10 11 12 13 14 15 16 17 18 19 20 21 22 23 24 25 26 27 28 29
000
FTUS45 KBOU 202048 AAA
TAFBJC
TAF AMD
KBJC 202048Z 2021/2118 17006KT P6SM VCTS SCT080CB BKN120
      TEMPO 2022/2101 VRB15G25KT BKN120CB
     FM210100 25008KT P6SM FEW140 BKN200
     FM211300 VRB03KT P6SM SCT140=

USA.gov is the U.S. government's official web portal to all federal, state and local government web resources and services.